createdAt,value
2023-01-28T00:05:01.694Z,87.86
2023-01-28T00:10:05.129Z,87.80
2023-01-28T00:15:08.949Z,86.89
2023-01-28T00:20:12.589Z,86.86
2023-01-28T00:25:16.933Z,86.89
2023-01-28T00:30:20.823Z,86.48
2023-01-28T00:35:23.566Z,86.53
2023-01-28T00:40:26.589Z,86.61
2023-01-28T00:45:29.898Z,86.73
2023-01-28T00:50:32.856Z,86.98
2023-01-28T00:55:35.963Z,86.85
2023-01-28T01:00:38.951Z,86.76
2023-01-28T01:05:41.826Z,87.34
2023-01-28T01:10:45.023Z,87.33
2023-01-28T01:15:47.885Z,87.60
2023-01-28T01:20:52.235Z,87.55
2023-01-28T01:25:55.733Z,88.26
2023-01-28T01:31:20.238Z,88.59
2023-01-28T01:36:26.184Z,89.11
2023-01-28T01:41:32.187Z,88.96
2023-01-28T01:46:51.126Z,89.18
2023-01-28T01:52:14.526Z,89.34
2023-01-28T01:57:26.831Z,89.75
2023-01-28T02:02:30.709Z,89.65
2023-01-28T02:07:34.520Z,89.60
2023-01-28T02:12:46.221Z,90.41
2023-01-28T02:17:51.106Z,90.38
2023-01-28T02:23:21.568Z,90.80
2023-01-28T02:28:30.127Z,91.02
2023-01-28T02:33:58.880Z,91.45
2023-01-28T02:39:13.500Z,91.41
2023-01-28T02:44:16.478Z,91.47
2023-01-28T02:49:45.409Z,91.51
2023-01-28T02:55:08.593Z,91.41
2023-01-28T03:00:27.842Z,91.37
2023-01-28T03:05:41.166Z,91.61
2023-01-28T03:10:43.998Z,91.70
2023-01-28T03:16:07.289Z,92.24
2023-01-28T03:21:39.889Z,92.60
2023-01-28T03:27:09.602Z,92.36
2023-01-28T03:32:31.974Z,92.48
2023-01-28T03:37:35.215Z,92.70
2023-01-28T03:42:38.166Z,92.92
2023-01-28T03:47:41.386Z,92.90
2023-01-28T03:52:44.456Z,93.02
2023-01-28T03:57:47.496Z,92.92
2023-01-28T04:02:51.031Z,92.98
2023-01-28T04:07:57.408Z,92.92
2023-01-28T04:13:00.536Z,93.18
2023-01-28T04:18:04.209Z,93.38
2023-01-28T04:23:10.290Z,93.10
2023-01-28T04:28:13.235Z,93.87
2023-01-28T04:33:16.073Z,93.97
2023-01-28T04:38:19.042Z,94.06
2023-01-28T04:43:22.071Z,93.87
2023-01-28T04:48:25.211Z,93.82
2023-01-28T04:53:28.167Z,93.69
2023-01-28T04:58:31.200Z,93.42
2023-01-28T05:03:36.255Z,93.83
2023-01-28T05:08:39.401Z,93.78
2023-01-28T05:13:42.457Z,93.30
2023-01-28T05:18:48.163Z,93.64
2023-01-28T05:23:51.158Z,94.28
2023-01-28T05:28:54.186Z,94.56
2023-01-28T05:33:57.937Z,94.22
2023-01-28T05:39:00.932Z,94.46
2023-01-28T05:44:05.067Z,94.85
2023-01-28T05:49:12.359Z,94.92
2023-01-28T05:54:15.250Z,94.64
2023-01-28T05:59:18.673Z,95.10
2023-01-28T06:04:22.027Z,95.07
2023-01-28T06:09:24.995Z,95.35
2023-01-28T06:14:27.875Z,95.48
2023-01-28T06:19:30.763Z,95.34
2023-01-28T06:24:33.911Z,95.41
2023-01-28T06:29:36.947Z,95.64
2023-01-28T06:34:40.460Z,95.47
2023-01-28T06:39:43.229Z,95.64
2023-01-28T06:44:46.228Z,95.52
2023-01-28T06:49:49.164Z,95.76
2023-01-28T06:54:53.628Z,95.99
2023-01-28T06:59:56.581Z,96.20
2023-01-28T07:04:59.629Z,96.42
2023-01-28T07:10:02.769Z,96.40
2023-01-28T07:15:06.644Z,96.56
2023-01-28T07:20:15.970Z,96.70
2023-01-28T07:25:19.287Z,96.85
2023-01-28T07:30:24.219Z,96.88
2023-01-28T07:35:27.913Z,97.00
2023-01-28T07:40:31.035Z,96.90
2023-01-28T07:45:34.435Z,96.80
2023-01-28T07:50:38.526Z,96.87
2023-01-28T07:55:41.519Z,97.00
2023-01-28T08:00:44.710Z,96.94
2023-01-28T08:05:51.746Z,96.48
2023-01-28T08:10:54.806Z,96.74
2023-01-28T08:15:57.856Z,96.71
2023-01-28T08:21:02.321Z,96.52
2023-01-28T08:26:05.258Z,96.80
2023-01-28T08:31:08.592Z,96.08
2023-01-28T08:36:12.750Z,96.31
2023-01-28T08:41:15.754Z,96.12
2023-01-28T08:46:18.587Z,95.77
2023-01-28T08:51:21.355Z,95.21
2023-01-28T08:56:24.202Z,94.83
2023-01-28T09:01:29.483Z,94.65
2023-01-28T09:06:33.066Z,94.27
2023-01-28T09:11:36.041Z,92.93
2023-01-28T09:16:38.937Z,91.83
2023-01-28T09:21:42.103Z,90.70
2023-01-28T09:26:45.562Z,89.96
2023-01-28T09:31:48.623Z,88.97
2023-01-28T09:36:51.503Z,88.88
2023-01-28T09:42:37.132Z,87.84
2023-01-28T09:47:53.964Z,86.88
2023-01-28T09:53:20.909Z,86.14
2023-01-28T09:58:24.134Z,85.04
2023-01-28T10:03:58.325Z,84.82
2023-01-28T10:09:33.215Z,83.88
2023-01-28T10:14:50.897Z,82.99
2023-01-28T10:20:17.958Z,82.31
2023-01-28T10:25:25.889Z,82.74
2023-01-28T10:30:35.212Z,82.56
2023-01-28T10:35:42.701Z,81.86
2023-01-28T10:40:48.329Z,79.84
2023-01-28T10:46:32.602Z,79.85
2023-01-28T10:51:39.005Z,78.72
2023-01-28T10:56:44.047Z,78.46
2023-01-28T11:01:56.560Z,77.56
2023-01-28T11:07:02.340Z,77.07
2023-01-28T11:12:26.051Z,76.71
2023-01-28T11:17:40.220Z,76.79
2023-01-28T11:22:45.139Z,76.06
2023-01-28T11:27:51.537Z,75.64
2023-01-28T11:33:21.487Z,75.33
2023-01-28T11:38:26.161Z,74.24
2023-01-28T11:43:31.599Z,72.59
2023-01-28T11:48:49.705Z,71.91
2023-01-28T11:54:35.521Z,71.25
2023-01-28T11:59:53.437Z,71.28
2023-01-28T12:05:11.799Z,71.25
2023-01-28T12:10:49.736Z,71.19
2023-01-28T12:16:30.452Z,70.83
2023-01-28T12:22:08.528Z,70.92
2023-01-28T12:27:38.220Z,71.08
2023-01-28T12:33:26.147Z,71.53
2023-01-28T12:38:53.932Z,71.47
2023-01-28T12:44:09.636Z,71.22
2023-01-28T12:49:36.316Z,71.28
2023-01-28T12:55:05.375Z,71.16
2023-01-28T13:00:37.025Z,71.58
2023-01-28T13:05:48.487Z,71.59
2023-01-28T13:10:53.334Z,71.85
2023-01-28T13:15:56.439Z,72.23
2023-01-28T13:21:01.837Z,72.18
2023-01-28T13:26:20.062Z,72.09
2023-01-28T13:31:24.742Z,72.02
2023-01-28T13:36:39.202Z,72.19
2023-01-28T13:41:47.758Z,72.55
2023-01-28T13:46:51.010Z,72.46
2023-01-28T13:52:12.287Z,73.06
2023-01-28T13:57:39.249Z,72.88
2023-01-28T14:03:09.682Z,73.04
2023-01-28T14:08:24.456Z,72.87
2023-01-28T14:14:05.911Z,73.11
2023-01-28T14:19:14.472Z,73.40
2023-01-28T14:24:19.610Z,73.10
2023-01-28T14:29:57.637Z,73.05
2023-01-28T14:35:09.909Z,73.75
2023-01-28T14:40:17.023Z,73.71
2023-01-28T14:45:25.934Z,74.63
2023-01-28T14:50:53.794Z,75.74
2023-01-28T14:56:20.269Z,76.43
2023-01-28T15:01:29.914Z,77.33
2023-01-28T15:06:36.145Z,77.40
2023-01-28T15:11:43.507Z,78.40
2023-01-28T15:16:50.831Z,79.07
2023-01-28T15:21:58.080Z,79.39
2023-01-28T15:27:01.791Z,79.88
2023-01-28T15:32:07.270Z,80.32
2023-01-28T15:37:11.152Z,81.00
2023-01-28T15:42:29.410Z,81.25
2023-01-28T15:47:35.373Z,81.76
2023-01-28T15:52:42.305Z,82.13
2023-01-28T15:57:45.243Z,82.49
2023-01-28T16:02:51.488Z,82.63
2023-01-28T16:07:56.465Z,83.09
2023-01-28T16:13:07.376Z,83.68
2023-01-28T16:18:30.209Z,84.10
2023-01-28T16:23:33.626Z,84.19
2023-01-28T16:28:36.435Z,84.69
2023-01-28T16:33:39.417Z,85.17
2023-01-28T16:38:42.541Z,85.31
2023-01-28T16:43:45.538Z,85.30
2023-01-28T16:48:48.600Z,86.11
2023-01-28T16:53:51.945Z,86.55
2023-01-28T16:58:56.004Z,86.69
2023-01-28T17:03:59.079Z,87.24
2023-01-28T17:09:02.154Z,87.29
2023-01-28T17:14:05.103Z,88.01
2023-01-28T17:19:08.107Z,88.10
2023-01-28T17:24:10.968Z,88.25
2023-01-28T17:29:13.914Z,88.92
2023-01-28T17:34:16.768Z,89.02
2023-01-28T17:39:19.703Z,89.38
2023-01-28T17:44:22.766Z,89.55
2023-01-28T17:49:25.738Z,89.72
2023-01-28T17:54:28.858Z,89.60
2023-01-28T17:59:31.766Z,89.84
2023-01-28T18:04:39.793Z,90.19
2023-01-28T18:09:45.880Z,90.65
2023-01-28T18:14:48.996Z,90.36
2023-01-28T18:19:52.701Z,90.53
2023-01-28T18:24:55.731Z,90.39
2023-01-28T18:29:58.771Z,90.58
2023-01-28T18:35:06.711Z,90.32
2023-01-28T18:40:10.633Z,90.01
2023-01-28T18:45:13.940Z,89.54
2023-01-28T18:50:17.185Z,89.19
2023-01-28T18:55:21.560Z,89.02
2023-01-28T19:00:24.645Z,89.48
2023-01-28T19:05:33.898Z,88.88
2023-01-28T19:10:36.947Z,88.93
2023-01-28T19:15:40.259Z,88.93
2023-01-28T19:20:43.733Z,88.88
2023-01-28T19:25:46.680Z,88.83
2023-01-28T19:30:50.043Z,88.64
2023-01-28T19:36:01.076Z,89.39
2023-01-28T19:41:08.184Z,89.44
2023-01-28T19:46:16.240Z,89.47
2023-01-28T19:51:20.016Z,89.85
2023-01-28T19:56:25.389Z,90.22
2023-01-28T20:01:30.438Z,90.64
2023-01-28T20:06:35.605Z,90.90
2023-01-28T20:11:38.515Z,90.89
2023-01-28T20:16:42.089Z,91.38
2023-01-28T20:21:47.589Z,91.42
2023-01-28T20:26:50.547Z,91.37
2023-01-28T20:32:13.708Z,91.93
2023-01-28T20:37:20.060Z,91.54
2023-01-28T20:42:23.013Z,91.22
2023-01-28T20:47:25.996Z,91.46
2023-01-28T20:52:28.963Z,91.82
2023-01-28T20:57:32.207Z,91.55
2023-01-28T21:02:39.898Z,91.79
2023-01-28T21:07:43.083Z,91.66
2023-01-28T21:12:45.963Z,91.84
2023-01-28T21:17:48.839Z,92.01
2023-01-28T21:22:56.105Z,92.10
2023-01-28T21:27:59.083Z,91.96
2023-01-28T21:33:02.031Z,92.07
2023-01-28T21:38:06.227Z,91.95
2023-01-28T21:43:09.350Z,92.25
2023-01-28T21:48:12.464Z,92.33
2023-01-28T21:53:15.303Z,92.47
2023-01-28T21:58:36.616Z,92.21
2023-01-28T22:03:39.671Z,92.22
2023-01-28T22:08:42.596Z,92.04
2023-01-28T22:13:45.687Z,92.03
2023-01-28T22:18:50.275Z,92.03
2023-01-28T22:23:53.957Z,92.18
2023-01-28T22:28:56.918Z,92.27
2023-01-28T22:33:59.951Z,92.34
2023-01-28T22:39:05.239Z,92.11
2023-01-28T22:44:08.528Z,92.27
2023-01-28T22:49:12.600Z,92.51
2023-01-28T22:54:15.716Z,92.99
2023-01-28T22:59:18.449Z,93.67
2023-01-28T23:04:21.408Z,93.36
2023-01-28T23:09:24.416Z,93.45
2023-01-28T23:14:45.638Z,93.83
2023-01-28T23:20:06.949Z,93.89
2023-01-28T23:25:10.981Z,94.09
2023-01-28T23:30:15.233Z,94.24
2023-01-28T23:35:19.373Z,94.69
2023-01-28T23:40:24.720Z,94.66
2023-01-28T23:45:27.719Z,94.88
2023-01-28T23:50:31.089Z,94.90
2023-01-28T23:55:33.903Z,94.77
